Time;durP1;ratioP1;P1;durP2;ratioP2;P2;SDS_P1;SDS_P2;PMS_P1;PMS_P2;Temp;Humidity;BMP_temperature;BMP_pressure;BME280_temperature;BME280_humidity;BME280_pressure;Samples;Min_cycle;Max_cycle;Signal;HPM_P1;HPM_P2
2023/07/05 00:00:55;;;;;;;;;;;;;;;-140.72;100.00;52581.59;4993447;28;20368;-70
2023/07/05 00:03:21;;;;;;;;;;;;;;;-140.72;100.00;52561.31;4988087;28;20001;-70
2023/07/05 00:05:46;;;;;;;;;;;;;;;-140.72;100.00;52589.72;4984734;28;19918;-70
2023/07/05 00:08:11;;;;;;;;;;;;;;;-140.72;100.00;52555.22;4992622;28;20096;-71
2023/07/05 00:10:37;;;;;;;;;;;;;;;-140.72;100.00;52569.44;4986456;28;20302;-70
2023/07/05 00:13:02;;;;;;;;;;;;;;;-140.72;100.00;52569.44;4990611;28;19926;-70
2023/07/05 00:15:28;;;;;;;;;;;;;;;-140.72;100.00;52589.72;4994034;28;19918;-70
2023/07/05 00:17:53;;;;;;;;;;;;;;;-140.72;100.00;52569.44;4991899;28;20012;-70
2023/07/05 00:20:19;;;;;;;;;;;;;;;-140.72;100.00;52577.53;4984437;28;20021;-71
2023/07/05 00:22:44;;;;;;;;;;;;;;;-140.72;100.00;52589.72;4988482;28;19969;-70
2023/07/05 00:25:09;;;;;;;;;;;;;;;-140.72;100.00;52595.81;4983512;28;19929;-70
2023/07/05 00:27:35;;;;;;;;;;;;;;;-140.72;100.00;52573.50;4990837;28;19929;-70
2023/07/05 00:30:00;;;;;;;;;;;;;;;-140.72;100.00;52565.38;4971711;28;19936;-70
2023/07/05 00:32:25;;;;;;;;;;;;;;;-140.72;100.00;52565.38;4989237;28;19918;-70
2023/07/05 00:34:51;;;;;;;;;;;;;;;-140.72;100.00;52618.13;4983788;28;20064;-70
2023/07/05 00:37:16;;;;;;;;;;;;;;;-140.72;100.00;52581.59;4985493;28;19918;-71
2023/07/05 00:39:41;;;;;;;;;;;;;;;-140.72;100.00;52569.44;4983626;28;19965;-70
2023/07/05 00:42:07;;;;;;;;;;;;;;;-140.72;100.00;52605.94;4989988;28;19942;-70
2023/07/05 00:44:32;;;;;;;;;;;;;;;-140.72;100.00;52597.84;4997247;28;19965;-71
2023/07/05 00:47:05;;;;;;;;;;;;;;;-140.72;100.00;52605.94;4995095;28;19925;-71
2023/07/05 00:49:32;;;;;;;;;;;;;;;-140.72;100.00;52587.69;4995535;28;19971;-71
2023/07/05 00:52:13;;;;;;;;;;;;;;;-140.72;100.00;52603.94;4978006;28;19918;-71
2023/07/05 00:54:40;;;;;;;;;;;;;;;-140.72;100.00;52597.84;4986533;28;19918;-71
2023/07/05 00:57:07;;;;;;;;;;;;;;;-140.72;100.00;52618.13;4996818;28;20012;-70
2023/07/05 00:59:38;;;;;;;;;;;;;;;-140.72;100.00;52605.94;4991975;28;19918;-70
2023/07/05 01:02:03;;;;;;;;;;;;;;;-140.72;100.00;52591.75;4993477;28;19988;-69
2023/07/05 01:04:32;;;;;;;;;;;;;;;-140.72;100.00;52585.66;4988440;28;19925;-69
2023/07/05 01:06:57;;;;;;;;;;;;;;;-140.72;100.00;52614.06;4981338;28;20009;-70
2023/07/05 01:09:26;;;;;;;;;;;;;;;-140.72;100.00;52642.47;4990340;28;19961;-69
2023/07/05 01:11:54;;;;;;;;;;;;;;;-140.72;100.00;52616.09;4982030;28;19961;-70
2023/07/05 01:14:23;;;;;;;;;;;;;;;-140.72;100.00;52605.94;4999016;28;19956;-70
2023/07/05 01:16:57;;;;;;;;;;;;;;;-140.72;100.00;52595.81;4980300;28;19933;-69
2023/07/05 01:19:35;;;;;;;;;;;;;;;-140.72;100.00;52607.97;4988736;28;20024;-70
2023/07/05 01:22:27;;;;;;;;;;;;;;;-140.72;100.00;52597.84;4989498;28;19922;-70
2023/07/05 01:25:12;;;;;;;;;;;;;;;-140.72;100.00;52553.19;4990626;28;19918;-70
2023/07/05 01:27:37;;;;;;;;;;;;;;;-140.72;100.00;52597.84;4978963;28;19922;-70
2023/07/05 01:30:08;;;;;;;;;;;;;;;-140.72;100.00;52585.66;4976306;28;20037;-70
2023/07/05 01:32:37;;;;;;;;;;;;;;;-140.72;100.00;52605.94;4995387;28;19988;-70
2023/07/05 01:35:05;;;;;;;;;;;;;;;-140.72;100.00;52618.13;4988900;28;19918;-70
2023/07/05 01:37:35;;;;;;;;;;;;;;;-140.72;100.00;52614.06;4993800;28;20369;-71
2023/07/05 01:40:11;;;;;;;;;;;;;;;-140.72;100.00;52581.59;4973384;28;19953;-70
2023/07/05 01:42:37;;;;;;;;;;;;;;;-140.72;100.00;52589.72;4987048;28;19925;-70
2023/07/05 01:45:03;;;;;;;;;;;;;;;-140.72;100.00;52612.03;4990288;28;20016;-70
2023/07/05 01:47:39;;;;;;;;;;;;;;;-140.72;100.00;52620.16;4980771;28;20057;-70
2023/07/05 01:50:05;;;;;;;;;;;;;;;-140.72;100.00;52589.72;4988736;28;20345;-70
2023/07/05 01:52:38;;;;;;;;;;;;;;;-140.72;100.00;52614.06;4991315;28;20006;-70
2023/07/05 01:55:03;;;;;;;;;;;;;;;-140.72;100.00;52614.06;4986996;28;19922;-69
2023/07/05 01:57:36;;;;;;;;;;;;;;;-140.72;100.00;52593.78;4976294;28;20416;-70
2023/07/05 02:00:12;;;;;;;;;;;;;;;-140.72;100.00;52605.94;4994998;28;19940;-69
2023/07/05 02:02:57;;;;;;;;;;;;;;;-140.72;100.00;52616.09;4963423;28;19918;-69
2023/07/05 02:05:27;;;;;;;;;;;;;;;-140.72;100.00;52618.13;4992333;28;19918;-69
2023/07/05 02:07:52;;;;;;;;;;;;;;;-140.72;100.00;52622.19;4994259;28;19973;-69
2023/07/05 02:10:17;;;;;;;;;;;;;;;-140.72;100.00;52620.16;4994021;28;19949;-69
2023/07/05 02:12:43;;;;;;;;;;;;;;;-140.72;100.00;52618.13;4988565;28;19918;-69
2023/07/05 02:15:09;;;;;;;;;;;;;;;-140.72;100.00;52605.94;4973897;28;20267;-69
2023/07/05 02:17:34;;;;;;;;;;;;;;;-140.72;100.00;52630.31;4994933;28;19922;-69
2023/07/05 02:19:59;;;;;;;;;;;;;;;-140.72;100.00;52648.56;4994756;28;19949;-69
2023/07/05 02:22:25;;;;;;;;;;;;;;;-140.72;100.00;52610.00;4969998;28;19925;-69
2023/07/05 02:24:51;;;;;;;;;;;;;;;-140.72;100.00;52638.41;4981226;28;19925;-69
2023/07/05 02:27:16;;;;;;;;;;;;;;;-140.72;100.00;52614.06;4976585;28;19922;-69
2023/07/05 02:29:42;;;;;;;;;;;;;;;-140.72;100.00;52605.94;4985084;28;19918;-70
2023/07/05 02:32:07;;;;;;;;;;;;;;;-140.72;100.00;52628.28;4990856;28;19961;-69
2023/07/05 02:34:36;;;;;;;;;;;;;;;-140.72;100.00;52597.84;4987003;28;20024;-70
2023/07/05 02:37:02;;;;;;;;;;;;;;;-140.72;100.00;52597.84;4992261;28;19965;-70
2023/07/05 02:39:28;;;;;;;;;;;;;;;-140.72;100.00;52630.31;4983896;28;19972;-70
2023/07/05 02:41:53;;;;;;;;;;;;;;;-140.72;100.00;52620.16;4990878;28;19968;-70
2023/07/05 02:44:19;;;;;;;;;;;;;;;-140.72;100.00;52636.38;4993303;28;20356;-69
2023/07/05 02:46:44;;;;;;;;;;;;;;;-140.72;100.00;52646.53;4992752;28;19922;-70
2023/07/05 02:49:09;;;;;;;;;;;;;;;-140.72;100.00;52612.03;4977156;28;20240;-70
2023/07/05 02:51:34;;;;;;;;;;;;;;;-140.72;100.00;52662.78;4988267;28;19957;-70
2023/07/05 02:53:59;;;;;;;;;;;;;;;-140.72;100.00;52672.91;4991449;28;20206;-70
2023/07/05 02:56:25;;;;;;;;;;;;;;;-140.72;100.00;52614.06;4985740;28;19922;-69
2023/07/05 02:58:51;;;;;;;;;;;;;;;-140.72;100.00;52648.56;4992122;28;19917;-70
2023/07/05 03:01:16;;;;;;;;;;;;;;;-140.72;100.00;52648.56;4991690;28;20277;-70
2023/07/05 03:03:41;;;;;;;;;;;;;;;-140.72;100.00;52634.38;4990269;28;19922;-70
2023/07/05 03:06:07;;;;;;;;;;;;;;;-140.72;100.00;52642.47;4982321;28;19918;-70
2023/07/05 03:08:32;;;;;;;;;;;;;;;-140.72;100.00;52620.16;4970661;28;20012;-69
2023/07/05 03:10:58;;;;;;;;;;;;;;;-140.72;100.00;52630.31;4993809;28;19925;-69
2023/07/05 03:13:31;;;;;;;;;;;;;;;-140.72;100.00;52642.47;4993486;28;19926;-70
2023/07/05 03:15:57;;;;;;;;;;;;;;;-140.72;100.00;52610.00;4992122;28;19928;-69
2023/07/05 03:18:23;;;;;;;;;;;;;;;-140.72;100.00;52650.59;4991487;28;19921;-70
2023/07/05 03:20:49;;;;;;;;;;;;;;;-140.72;100.00;52642.47;4981168;28;19970;-70
2023/07/05 03:23:15;;;;;;;;;;;;;;;-140.72;100.00;52628.28;4994144;28;19925;-69
2023/07/05 03:25:40;;;;;;;;;;;;;;;-140.72;100.00;52634.38;4981634;28;19930;-70
2023/07/05 03:28:06;;;;;;;;;;;;;;;-140.72;100.00;52638.41;4976216;28;20320;-70
2023/07/05 03:30:35;;;;;;;;;;;;;;;-140.72;100.00;52650.59;4981939;28;19929;-70
2023/07/05 03:33:00;;;;;;;;;;;;;;;-140.72;100.00;52634.38;4964608;28;20333;-69
2023/07/05 03:35:25;;;;;;;;;;;;;;;-140.72;100.00;52642.47;4999604;28;19952;-69
2023/07/05 03:37:50;;;;;;;;;;;;;;;-140.72;100.00;52624.22;4986908;28;20015;-69
2023/07/05 03:40:16;;;;;;;;;;;;;;;-140.72;100.00;52628.28;4977329;28;20391;-70
2023/07/05 03:42:41;;;;;;;;;;;;;;;-140.72;100.00;52654.66;4985783;28;19921;-69
2023/07/05 03:45:06;;;;;;;;;;;;;;;-140.72;100.00;52626.25;4978218;28;19965;-70
2023/07/05 03:47:32;;;;;;;;;;;;;;;-140.72;100.00;52595.81;4987239;28;19922;-69
2023/07/05 03:49:57;;;;;;;;;;;;;;;-140.72;100.00;52646.53;4978930;28;19918;-70
2023/07/05 03:52:22;;;;;;;;;;;;;;;-140.72;100.00;52630.31;4991395;28;19917;-70
2023/07/05 03:54:48;;;;;;;;;;;;;;;-140.72;100.00;52636.38;4978879;28;19926;-70
2023/07/05 03:57:13;;;;;;;;;;;;;;;-140.72;100.00;52632.34;4966142;28;19924;-69
2023/07/05 03:59:39;;;;;;;;;;;;;;;-140.72;100.00;52634.38;4987341;28;19922;-74
2023/07/05 04:02:04;;;;;;;;;;;;;;;-140.72;100.00;52642.47;4970586;28;20017;-72
2023/07/05 04:04:37;;;;;;;;;;;;;;;-140.72;100.00;52650.59;4982523;28;20325;-71
2023/07/05 04:07:02;;;;;;;;;;;;;;;-140.72;100.00;52674.94;4977083;28;19918;-75
2023/07/05 04:09:28;;;;;;;;;;;;;;;-140.72;100.00;52668.84;4967510;28;19929;-74
2023/07/05 04:14:56;;;;;;;;;;;;;;;-140.72;100.00;52642.47;4979730;28;19940;-74
2023/07/05 04:17:21;;;;;;;;;;;;;;;-140.72;100.00;52691.19;5001848;28;19922;-74
2023/07/05 04:19:46;;;;;;;;;;;;;;;-140.72;100.00;52644.50;4991086;28;19928;-74
2023/07/05 04:22:11;;;;;;;;;;;;;;;-140.72;100.00;52679.00;5001109;28;19985;-74
2023/07/05 04:24:37;;;;;;;;;;;;;;;-140.72;100.00;52652.63;4967730;28;19922;-74
2023/07/05 04:27:02;;;;;;;;;;;;;;;-140.72;100.00;52652.63;4986722;28;20305;-73
2023/07/05 04:29:28;;;;;;;;;;;;;;;-140.72;100.00;52650.59;4988920;28;20387;-73
2023/07/05 04:31:53;;;;;;;;;;;;;;;-140.72;100.00;52650.59;4964730;28;19929;-73
2023/07/05 04:34:18;;;;;;;;;;;;;;;-140.72;100.00;52662.78;4964906;28;19926;-71
2023/07/05 04:36:45;;;;;;;;;;;;;;;-140.72;100.00;52683.06;4981904;28;20338;-71
2023/07/05 04:39:28;;;;;;;;;;;;;;;-140.72;100.00;52662.78;4991569;28;19925;-72
2023/07/05 04:41:55;;;;;;;;;;;;;;;-140.72;100.00;52642.47;4980695;28;19997;-71
2023/07/05 04:44:20;;;;;;;;;;;;;;;-140.72;100.00;52670.88;4992325;28;19929;-70
2023/07/05 04:46:45;;;;;;;;;;;;;;;-140.72;100.00;52687.13;5000138;28;19930;-71
2023/07/05 04:49:11;;;;;;;;;;;;;;;-140.72;100.00;52650.59;4996499;28;19948;-70
2023/07/05 04:51:36;;;;;;;;;;;;;;;-140.72;100.00;52642.47;4987320;28;19960;-70
2023/07/05 04:54:01;;;;;;;;;;;;;;;-140.72;100.00;52642.47;4991027;28;19922;-70
2023/07/05 04:56:26;;;;;;;;;;;;;;;-140.72;100.00;52664.81;4979622;28;20376;-72
2023/07/05 04:58:52;;;;;;;;;;;;;;;-140.72;100.00;52670.88;4975032;28;19929;-76
2023/07/05 05:01:18;;;;;;;;;;;;;;;-140.72;100.00;52687.13;4973686;28;19929;-69
2023/07/05 05:03:43;;;;;;;;;;;;;;;-140.72;100.00;52695.25;4967513;28;20384;-69
2023/07/05 05:06:08;;;;;;;;;;;;;;;-140.72;100.00;52668.84;4975338;28;19949;-72
2023/07/05 05:08:33;;;;;;;;;;;;;;;-140.72;100.00;52654.66;4974181;28;19922;-72
2023/07/05 05:11:00;;;;;;;;;;;;;;;-140.72;100.00;52691.19;4990543;28;19926;-72
2023/07/05 05:13:26;;;;;;;;;;;;;;;-140.72;100.00;52687.13;4980843;28;19922;-76
2023/07/05 05:15:51;;;;;;;;;;;;;;;-140.72;100.00;52672.91;4991470;28;20423;-71
2023/07/05 05:18:17;;;;;;;;;;;;;;;-140.72;100.00;52679.00;4984372;28;20297;-72
2023/07/05 05:20:42;;;;;;;;;;;;;;;-140.72;100.00;52674.94;4969281;28;19965;-70
2023/07/05 05:23:08;;;;;;;;;;;;;;;-140.72;100.00;52681.03;4974535;28;19965;-71
2023/07/05 05:25:33;;;;;;;;;;;;;;;-140.72;100.00;52709.44;4988899;28;19918;-70
2023/07/05 05:27:59;;;;;;;;;;;;;;;-140.72;100.00;52666.84;4985788;28;19925;-71
2023/07/05 05:30:24;;;;;;;;;;;;;;;-140.72;100.00;52666.84;4972401;28;19929;-71
2023/07/05 05:32:49;;;;;;;;;;;;;;;-140.72;100.00;52658.72;4986161;28;19922;-71
2023/07/05 05:35:15;;;;;;;;;;;;;;;-140.72;100.00;52679.00;4974575;28;19918;-71
2023/07/05 05:37:42;;;;;;;;;;;;;;;-140.72;100.00;52687.13;4989645;28;20346;-71
2023/07/05 05:40:08;;;;;;;;;;;;;;;-140.72;100.00;52725.69;4992253;28;19922;-71
2023/07/05 05:42:33;;;;;;;;;;;;;;;-140.72;100.00;52681.03;4966467;28;19922;-71
2023/07/05 05:44:58;;;;;;;;;;;;;;;-140.72;100.00;52723.66;4988902;28;19926;-71
2023/07/05 05:47:24;;;;;;;;;;;;;;;-140.72;100.00;52711.47;4987337;28;20352;-70
2023/07/05 05:49:49;;;;;;;;;;;;;;;-140.72;100.00;52725.69;4992873;28;21625;-70
2023/07/05 05:52:14;;;;;;;;;;;;;;;-140.72;100.00;52743.94;4973248;28;19968;-71
2023/07/05 05:54:39;;;;;;;;;;;;;;;-140.72;100.00;52723.66;4989144;28;19918;-70
2023/07/05 05:57:05;;;;;;;;;;;;;;;-140.72;100.00;52745.97;4994880;28;19965;-70
2023/07/05 05:59:30;;;;;;;;;;;;;;;-140.72;100.00;52725.69;4993619;28;19964;-71
2023/07/05 06:01:55;;;;;;;;;;;;;;;-140.72;100.00;52711.47;4995202;28;19982;-71
2023/07/05 06:04:20;;;;;;;;;;;;;;;-140.72;100.00;52703.34;5002754;28;19945;-70
2023/07/05 06:06:46;;;;;;;;;;;;;;;-140.72;100.00;52727.72;4994124;28;19972;-71
2023/07/05 06:09:14;;;;;;;;;;;;;;;-140.72;100.00;52752.06;4995850;28;20332;-73
2023/07/05 06:11:39;;;;;;;;;;;;;;;-140.72;100.00;52729.75;4992175;28;20426;-72
2023/07/05 06:14:09;;;;;;;;;;;;;;;-140.72;100.00;52739.88;4995391;28;19918;-72
2023/07/05 06:16:42;;;;;;;;;;;;;;;-140.72;100.00;52727.72;4995283;28;19992;-71
2023/07/05 06:19:07;;;;;;;;;;;;;;;-140.72;100.00;52743.94;4994947;28;20359;-71
2023/07/05 06:21:32;;;;;;;;;;;;;;;-140.72;100.00;52705.38;4994667;28;19953;-69
2023/07/05 06:23:57;;;;;;;;;;;;;;;-140.72;100.00;52697.28;4994468;28;19960;-69
2023/07/05 06:26:23;;;;;;;;;;;;;;;-140.72;100.00;52713.50;4992700;28;19923;-69
2023/07/05 06:28:48;;;;;;;;;;;;;;;-140.72;100.00;52754.09;4991737;28;20017;-69
2023/07/05 06:31:15;;;;;;;;;;;;;;;-140.72;100.00;52711.47;4989604;28;19958;-69
2023/07/05 06:33:41;;;;;;;;;;;;;;;-140.72;100.00;52764.25;4983429;28;20008;-69
2023/07/05 06:36:07;;;;;;;;;;;;;;;-140.72;100.00;52697.28;4985540;28;19956;-69
2023/07/05 06:38:35;;;;;;;;;;;;;;;-140.72;100.00;52758.16;4984602;28;19934;-70
2023/07/05 06:41:00;;;;;;;;;;;;;;;-140.72;100.00;52713.50;4986587;28;19977;-72
2023/07/05 06:43:26;;;;;;;;;;;;;;;-140.72;100.00;52672.91;4980174;28;19922;-72
2023/07/05 06:45:52;;;;;;;;;;;;;;;-140.72;100.00;52723.66;4980125;28;19927;-72
2023/07/05 06:48:18;;;;;;;;;;;;;;;-140.72;100.00;52739.88;4989693;28;19922;-72
2023/07/05 06:50:43;;;;;;;;;;;;;;;-140.72;100.00;52735.81;4983846;28;20016;-72
2023/07/05 06:53:12;;;;;;;;;;;;;;;-140.72;100.00;52695.25;4989367;28;19926;-72
2023/07/05 06:55:40;;;;;;;;;;;;;;;-140.72;100.00;52741.91;4984601;28;19972;-72
2023/07/05 06:58:05;;;;;;;;;;;;;;;-140.72;100.00;52691.19;4979643;28;19973;-72
2023/07/05 07:00:31;;;;;;;;;;;;;;;-140.72;100.00;52729.75;4997583;28;19925;-72
2023/07/05 07:02:57;;;;;;;;;;;;;;;-140.72;100.00;52693.22;4999829;28;19967;-72
2023/07/05 07:05:22;;;;;;;;;;;;;;;-140.72;100.00;52703.34;4984639;28;20028;-73
2023/07/05 07:07:49;;;;;;;;;;;;;;;-140.72;100.00;52699.31;4988472;28;20328;-72
2023/07/05 07:10:15;;;;;;;;;;;;;;;-140.72;100.00;52727.72;4989598;28;19917;-72
2023/07/05 07:12:54;;;;;;;;;;;;;;;-140.72;100.00;52729.75;4982991;28;19936;-72
2023/07/05 07:15:19;;;;;;;;;;;;;;;-140.72;100.00;52681.03;4983485;28;19933;-72
2023/07/05 07:17:45;;;;;;;;;;;;;;;-140.72;100.00;52709.44;4989738;28;19918;-73
2023/07/05 07:20:13;;;;;;;;;;;;;;;-140.72;100.00;52705.38;4991291;28;19929;-73
2023/07/05 07:22:39;;;;;;;;;;;;;;;-140.72;100.00;52731.75;4978742;28;19932;-73
2023/07/05 07:25:05;;;;;;;;;;;;;;;-140.72;100.00;52703.34;4972741;28;19918;-73
2023/07/05 07:27:30;;;;;;;;;;;;;;;-140.72;100.00;52735.81;4988751;28;20012;-73
2023/07/05 07:29:55;;;;;;;;;;;;;;;-140.72;100.00;52670.88;4988927;28;20378;-72
2023/07/05 07:32:21;;;;;;;;;;;;;;;-140.72;100.00;52721.63;4973344;28;19926;-71
2023/07/05 07:34:53;;;;;;;;;;;;;;;-140.72;100.00;52717.56;4986835;28;19921;-70
2023/07/05 07:37:19;;;;;;;;;;;;;;;-140.72;100.00;52699.31;4979919;28;19918;-71
2023/07/05 07:39:44;;;;;;;;;;;;;;;-140.72;100.00;52711.47;4985492;28;19929;-70
2023/07/05 07:42:10;;;;;;;;;;;;;;;-140.72;100.00;52719.59;4988571;28;19918;-72
2023/07/05 07:44:35;;;;;;;;;;;;;;;-140.72;100.00;52713.50;4977016;28;19922;-69
2023/07/05 07:47:00;;;;;;;;;;;;;;;-140.72;100.00;52699.31;4983395;28;19957;-69
2023/07/05 07:49:25;;;;;;;;;;;;;;;-140.72;100.00;52707.41;4994410;28;19925;-70
2023/07/05 07:51:51;;;;;;;;;;;;;;;-140.72;100.00;52713.50;5007255;28;19932;-71
2023/07/05 07:54:17;;;;;;;;;;;;;;;-140.72;100.00;52695.25;4988832;28;19999;-69
2023/07/05 07:56:43;;;;;;;;;;;;;;;-140.72;100.00;52719.59;4993602;28;19961;-69
2023/07/05 07:59:08;;;;;;;;;;;;;;;-140.72;100.00;52707.41;4992028;28;20360;-70
2023/07/05 08:01:35;;;;;;;;;;;;;;;-140.72;100.00;52719.59;4991688;28;19976;-70
2023/07/05 08:04:01;;;;;;;;;;;;;;;-140.72;100.00;52707.41;4987892;28;19941;-70
2023/07/05 08:06:28;;;;;;;;;;;;;;;-140.72;100.00;52717.56;4977208;28;19988;-69
2023/07/05 08:08:53;;;;;;;;;;;;;;;-140.72;100.00;52711.47;4982292;28;19921;-71
2023/07/05 08:11:20;;;;;;;;;;;;;;;-140.72;100.00;52723.66;4986808;28;19926;-71
2023/07/05 08:13:48;;;;;;;;;;;;;;;-140.72;100.00;52721.63;4992078;28;19922;-74
2023/07/05 08:16:15;;;;;;;;;;;;;;;-140.72;100.00;52750.03;4991416;28;19921;-72
2023/07/05 08:18:40;;;;;;;;;;;;;;;-140.72;100.00;52699.31;4986022;28;19922;-73
2023/07/05 08:21:06;;;;;;;;;;;;;;;-140.72;100.00;52687.13;4984246;28;20248;-72
2023/07/05 08:23:31;;;;;;;;;;;;;;;-140.72;100.00;52685.09;4960058;28;19926;-72
2023/07/05 08:25:56;;;;;;;;;;;;;;;-140.72;100.00;52679.00;4994141;28;19921;-71
2023/07/05 08:28:22;;;;;;;;;;;;;;;-140.72;100.00;52658.72;4991260;28;19922;-71
2023/07/05 08:31:01;;;;;;;;;;;;;;;-140.72;100.00;52646.53;4998636;28;20056;-72
2023/07/05 08:33:28;;;;;;;;;;;;;;;-140.72;100.00;52612.03;4990015;28;21171;-71
2023/07/05 08:36:24;;;;;;;;;;;;;;;-140.72;100.00;52644.50;4981314;28;19922;-71
2023/07/05 08:38:50;;;;;;;;;;;;;;;-140.72;100.00;52628.28;4962620;28;20350;-70
2023/07/05 08:41:18;;;;;;;;;;;;;;;-140.72;100.00;52658.72;4988900;28;19929;-71
2023/07/05 08:43:48;;;;;;;;;;;;;;;-140.72;100.00;52607.97;4977128;28;20443;-71
2023/07/05 08:46:14;;;;;;;;;;;;;;;-140.72;100.00;52595.81;4973926;28;19964;-71
2023/07/05 08:48:41;;;;;;;;;;;;;;;-140.72;100.00;52587.69;4972755;28;20001;-71
2023/07/05 08:51:09;;;;;;;;;;;;;;;-140.72;100.00;52597.84;4990969;28;20021;-70
2023/07/05 08:53:41;;;;;;;;;;;;;;;-140.72;100.00;52597.84;4983612;28;20032;-71
2023/07/05 08:56:10;;;;;;;;;;;;;;;-140.72;100.00;52589.72;4984099;28;20446;-70
2023/07/05 08:58:51;;;;;;;;;;;;;;;-140.72;100.00;52567.41;4983246;28;19918;-72
2023/07/05 09:01:23;;;;;;;;;;;;;;;-140.72;100.00;52581.59;4974514;28;20004;-72
2023/07/05 09:03:49;;;;;;;;;;;;;;;-140.72;100.00;52628.28;4970877;28;19942;-71
2023/07/05 09:06:25;;;;;;;;;;;;;;;-140.72;100.00;52591.75;4976200;28;20344;-71
2023/07/05 09:09:14;;;;;;;;;;;;;;;-140.72;100.00;52589.72;4988658;28;19925;-71
2023/07/05 09:11:48;;;;;;;;;;;;;;;-140.72;100.00;52587.69;4983779;28;19933;-71
2023/07/05 09:14:29;;;;;;;;;;;;;;;-140.72;100.00;52555.22;4993125;28;19984;-71
2023/07/05 09:17:01;;;;;;;;;;;;;;;-140.72;100.00;52591.75;4981989;28;19926;-70
2023/07/05 09:19:46;;;;;;;;;;;;;;;-140.72;100.00;52595.81;4993416;28;20342;-71
2023/07/05 09:22:16;;;;;;;;;;;;;;;-140.72;100.00;52605.94;4974884;28;20012;-71
2023/07/05 09:24:41;;;;;;;;;;;;;;;-140.72;100.00;52593.78;4996562;28;19918;-71
2023/07/05 09:27:14;;;;;;;;;;;;;;;-140.72;100.00;52618.13;4995197;28;20460;-71
2023/07/05 09:30:00;;;;;;;;;;;;;;;-140.72;100.00;52599.88;4986792;28;20009;-71
2023/07/05 09:32:53;;;;;;;;;;;;;;;-140.72;100.00;52559.28;4975839;28;19917;-71
2023/07/05 09:35:26;;;;;;;;;;;;;;;-140.72;100.00;52597.84;4993698;28;19922;-72
2023/07/05 09:37:51;;;;;;;;;;;;;;;-140.72;100.00;52559.28;4999495;28;19953;-71
2023/07/05 09:40:16;;;;;;;;;;;;;;;-140.72;100.00;52610.00;4995204;28;19929;-70
2023/07/05 09:42:45;;;;;;;;;;;;;;;-140.72;100.00;52585.66;4995989;28;19945;-70
2023/07/05 09:45:14;;;;;;;;;;;;;;;-140.72;100.00;52561.31;4993115;28;20016;-70
2023/07/05 09:47:41;;;;;;;;;;;;;;;-140.72;100.00;52551.16;4992385;28;19988;-69
2023/07/05 09:50:16;;;;;;;;;;;;;;;-140.72;100.00;52567.41;4995156;28;19925;-70
2023/07/05 09:52:44;;;;;;;;;;;;;;;-140.72;100.00;52530.88;4989206;28;19929;-71
2023/07/05 09:55:14;;;;;;;;;;;;;;;-140.72;100.00;52553.19;4987774;28;19928;-71
2023/07/05 09:57:39;;;;;;;;;;;;;;;-140.72;100.00;52557.25;4973237;28;19922;-71
2023/07/05 10:00:24;;;;;;;;;;;;;;;-140.72;100.00;52512.59;4994556;28;19928;-70
2023/07/05 10:02:52;;;;;;;;;;;;;;;-140.72;100.00;52516.66;4988761;28;19921;-70
2023/07/05 10:05:25;;;;;;;;;;;;;;;-140.72;100.00;52500.44;4989061;28;20320;-70
2023/07/05 10:07:55;;;;;;;;;;;;;;;-140.72;100.00;52490.28;4996391;28;19922;-70
2023/07/05 10:10:23;;;;;;;;;;;;;;;-140.72;100.00;52504.50;4993107;28;19985;-70
2023/07/05 10:12:57;;;;;;;;;;;;;;;-140.72;100.00;52465.94;4987080;28;20020;-70
2023/07/05 10:15:23;;;;;;;;;;;;;;;-140.72;100.00;52490.28;4992564;28;19946;-69
2023/07/05 10:17:51;;;;;;;;;;;;;;;-140.72;100.00;52516.66;4988782;28;19922;-69
2023/07/05 10:20:27;;;;;;;;;;;;;;;-140.72;100.00;52419.28;4983642;28;20476;-70
2023/07/05 10:23:04;;;;;;;;;;;;;;;-140.72;100.00;52470.00;4993762;28;19937;-70
2023/07/05 10:25:33;;;;;;;;;;;;;;;-140.72;100.00;52463.91;4994240;28;20336;-70
2023/07/05 10:27:59;;;;;;;;;;;;;;;-140.72;100.00;52443.63;4986366;28;20558;-70
2023/07/05 10:30:26;;;;;;;;;;;;;;;-140.72;100.00;52451.72;4994273;28;19930;-70
2023/07/05 10:33:14;;;;;;;;;;;;;;;-140.72;100.00;52524.78;4995019;28;19918;-70
2023/07/05 10:36:06;;;;;;;;;;;;;;;-140.72;100.00;52551.16;4963093;28;19922;-71
2023/07/05 10:38:45;;;;;;;;;;;;;;;-140.72;100.00;52502.47;4991098;28;19926;-70
2023/07/05 10:41:20;;;;;;;;;;;;;;;-140.72;100.00;52388.84;4983191;28;19937;-70
2023/07/05 10:44:08;;;;;;;;;;;;;;;-140.72;100.00;52457.81;4988206;28;20004;-71
2023/07/05 10:46:36;;;;;;;;;;;;;;;-140.72;100.00;52470.00;4953015;28;19976;-72
2023/07/05 10:49:12;;;;;;;;;;;;;;;-140.72;100.00;52496.38;4994095;28;20451;-72
2023/07/05 10:51:40;;;;;;;;;;;;;;;-140.72;100.00;52496.38;4975505;28;19943;-72
2023/07/05 10:54:17;;;;;;;;;;;;;;;-140.72;100.00;52508.56;4986728;28;19918;-70
2023/07/05 10:56:44;;;;;;;;;;;;;;;-140.72;100.00;52500.44;4988784;28;20395;-69
2023/07/05 10:59:09;;;;;;;;;;;;;;;-140.72;100.00;52510.59;4965844;28;19926;-68
2023/07/05 11:01:40;;;;;;;;;;;;;;;-140.72;100.00;52443.63;4992430;28;19929;-69
2023/07/05 11:04:20;;;;;;;;;;;;;;;-140.72;100.00;52435.50;4965665;28;19972;-69
2023/07/05 11:06:46;;;;;;;;;;;;;;;-140.72;100.00;52492.31;4992089;28;20017;-71
2023/07/05 11:09:11;;;;;;;;;;;;;;;-140.72;100.00;52342.16;4987571;28;19972;-69
2023/07/05 11:11:47;;;;;;;;;;;;;;;-140.72;100.00;52472.03;4994035;28;19922;-69
2023/07/05 11:14:13;;;;;;;;;;;;;;;-140.72;100.00;52451.72;4989664;28;19930;-71
2023/07/05 11:16:39;;;;;;;;;;;;;;;-140.72;100.00;52447.69;4969267;28;19922;-72
2023/07/05 11:19:09;;;;;;;;;;;;;;;-140.72;100.00;52528.84;4976669;28;19918;-68
2023/07/05 11:21:38;;;;;;;;;;;;;;;-140.72;100.00;52536.97;4998770;28;19917;-72
2023/07/05 11:24:07;;;;;;;;;;;;;;;-140.72;100.00;52514.63;5004385;28;19922;-69
2023/07/05 11:26:43;;;;;;;;;;;;;;;-140.72;100.00;52516.66;4987381;28;19925;-70
2023/07/05 11:29:27;;;;;;;;;;;;;;;-140.72;100.00;52484.19;4983933;28;20264;-69
2023/07/05 11:31:52;;;;;;;;;;;;;;;-140.72;100.00;52543.03;4987060;28;19922;-71
2023/07/05 11:34:20;;;;;;;;;;;;;;;-140.72;100.00;52522.75;4969896;28;19941;-69
2023/07/05 11:36:46;;;;;;;;;;;;;;;-140.72;100.00;52480.16;4990180;28;19934;-69
2023/07/05 11:39:30;;;;;;;;;;;;;;;-140.72;100.00;52455.78;4995460;28;19929;-70
2023/07/05 11:41:56;;;;;;;;;;;;;;;-140.72;100.00;52285.34;4992701;28;20276;-71
2023/07/05 11:44:28;;;;;;;;;;;;;;;-140.72;69.49;52390.84;4988795;28;19951;-70
2023/07/05 11:46:54;;;;;;;;;;;;;;;-140.72;12.15;52403.03;4993671;28;19968;-70
2023/07/05 11:49:20;;;;;;;;;;;;;;;-140.72;0.00;52273.19;4983138;28;19922;-70
2023/07/05 11:51:47;;;;;;;;;;;;;;;-140.72;0.00;52261.00;4987109;28;19980;-70
2023/07/05 11:54:13;;;;;;;;;;;;;;;-140.72;0.00;52301.59;4990446;28;19954;-71
2023/07/05 11:56:41;;;;;;;;;;;;;;;-140.72;0.00;52401.00;4986438;28;19968;-70
2023/07/05 11:59:09;;;;;;;;;;;;;;;-140.72;0.00;52439.56;4984595;28;19918;-69
2023/07/05 12:01:36;;;;;;;;;;;;;;;-140.72;0.00;52360.44;4982277;28;19997;-70
2023/07/05 12:04:05;;;;;;;;;;;;;;;-140.72;0.00;52364.47;4986981;28;19924;-68
2023/07/05 12:06:50;;;;;;;;;;;;;;;-140.72;0.00;52291.44;4971600;28;20020;-71
2023/07/05 12:09:18;;;;;;;;;;;;;;;-140.72;0.00;52441.59;4989408;28;20272;-69
2023/07/05 12:11:43;;;;;;;;;;;;;;;-140.72;0.00;52453.75;4992106;28;19945;-71
2023/07/05 12:14:12;;;;;;;;;;;;;;;-140.72;0.00;52451.72;4985794;28;19921;-70
2023/07/05 12:16:37;;;;;;;;;;;;;;;-140.72;0.00;52451.72;4990499;28;19925;-72
2023/07/05 12:19:07;;;;;;;;;;;;;;;-140.72;0.00;52484.19;4988247;28;19917;-70
2023/07/05 12:21:32;;;;;;;;;;;;;;;-140.72;0.00;52463.91;4995545;28;19929;-70
2023/07/05 12:23:58;;;;;;;;;;;;;;;-140.72;0.00;52449.72;4989580;28;19992;-73
2023/07/05 12:26:27;;;;;;;;;;;;;;;-140.72;0.00;52376.66;4981288;28;19926;-69